createdAt,value
2019-03-11T00:00:47.002Z,51.70
2019-03-11T00:05:45.153Z,50.80
2019-03-11T00:10:40.921Z,51.90
2019-03-11T00:15:36.940Z,53.30
2019-03-11T00:20:33.236Z,50.90
2019-03-11T00:25:29.137Z,49.30
2019-03-11T00:30:24.967Z,48.60
2019-03-11T00:35:20.889Z,47.80
2019-03-11T00:40:16.725Z,47.70
2019-03-11T00:45:12.715Z,45.80
2019-03-11T00:50:09.542Z,43.30
2019-03-11T00:55:05.652Z,43.60
2019-03-11T01:00:01.542Z,42.50
2019-03-11T01:04:57.708Z,42.10
2019-03-11T01:09:53.500Z,40.60
2019-03-11T01:14:49.310Z,39.30
2019-03-11T01:19:45.191Z,38.40
2019-03-11T01:24:41.062Z,38.20
2019-03-11T01:29:36.895Z,37.60
2019-03-11T01:34:32.752Z,37.90
2019-03-11T01:39:28.606Z,37.60
2019-03-11T01:44:24.320Z,37.70
2019-03-11T01:49:24.072Z,37.80
2019-03-11T01:54:20.901Z,37.90
2019-03-11T01:59:16.917Z,38.30
2019-03-11T02:04:13.879Z,40.50
2019-03-11T02:09:13.065Z,41.50
2019-03-11T02:14:08.815Z,42.20
2019-03-11T02:19:04.495Z,42.30
2019-03-11T02:24:02.972Z,42.40
2019-03-11T02:28:58.976Z,42.80
2019-03-11T02:33:55.785Z,42.90
2019-03-11T02:38:51.661Z,43.10
2019-03-11T02:43:47.431Z,43.30
2019-03-11T02:48:43.130Z,42.90
2019-03-11T02:53:38.882Z,43.10
2019-03-11T02:58:34.676Z,43.00
2019-03-11T03:03:49.644Z,44.20
2019-03-11T03:08:45.495Z,44.00
2019-03-11T03:13:41.210Z,44.30
2019-03-11T03:18:36.926Z,43.70
2019-03-11T03:23:32.687Z,42.80
2019-03-11T03:28:28.691Z,42.50
2019-03-11T03:33:24.477Z,43.40
2019-03-11T03:38:30.655Z,42.80
2019-03-11T03:43:19.571Z,42.20
2019-03-11T03:48:15.861Z,40.50
2019-03-11T03:53:14.132Z,41.40
2019-03-11T03:58:09.872Z,40.20
2019-03-11T04:03:08.982Z,39.00
2019-03-11T04:08:04.861Z,37.50
2019-03-11T04:13:00.524Z,39.00
2019-03-11T04:17:56.515Z,38.70
2019-03-11T04:22:52.376Z,37.80
2019-03-11T04:27:48.243Z,36.60
2019-03-11T04:32:43.885Z,35.70
2019-03-11T04:37:39.748Z,34.70
2019-03-11T04:42:35.635Z,35.00
2019-03-11T04:47:31.463Z,32.50
2019-03-11T04:52:27.204Z,31.30
2019-03-11T04:57:23.582Z,29.90
2019-03-11T05:02:19.430Z,28.50
2019-03-11T05:07:15.185Z,28.50
2019-03-11T05:12:12.744Z,28.90
2019-03-11T05:17:08.627Z,27.10
2019-03-11T05:22:06.945Z,26.40
2019-03-11T05:27:02.868Z,26.00
2019-03-11T05:31:58.604Z,25.80
2019-03-11T05:36:54.405Z,25.00
2019-03-11T05:41:50.148Z,24.70
2019-03-11T05:46:47.103Z,25.00
2019-03-11T05:51:42.795Z,24.70
2019-03-11T05:56:38.787Z,24.50
2019-03-11T06:01:34.983Z,24.70
2019-03-11T06:06:30.808Z,24.60
2019-03-11T06:11:26.679Z,24.90
2019-03-11T06:16:23.556Z,25.30
2019-03-11T06:21:24.351Z,27.60
2019-03-11T06:26:20.193Z,25.90
2019-03-11T06:31:16.144Z,25.50
2019-03-11T06:36:12.010Z,25.60
2019-03-11T06:41:08.069Z,25.80
2019-03-11T06:46:03.960Z,26.20
2019-03-11T06:50:59.690Z,26.60
2019-03-11T06:55:56.591Z,26.70
2019-03-11T07:00:52.705Z,27.20
2019-03-11T07:05:49.609Z,27.20
2019-03-11T07:10:46.236Z,26.80
2019-03-11T07:15:42.202Z,27.00
2019-03-11T07:20:37.972Z,26.80
2019-03-11T07:25:33.907Z,26.90
2019-03-11T07:30:29.714Z,26.20
2019-03-11T07:35:25.589Z,25.00
2019-03-11T07:40:29.756Z,24.70
2019-03-11T07:45:18.958Z,24.60
2019-03-11T07:50:17.355Z,24.60
2019-03-11T07:55:15.459Z,25.00
2019-03-11T08:00:11.722Z,24.40
2019-03-11T08:05:08.564Z,24.20
2019-03-11T08:10:04.814Z,23.70
2019-03-11T08:14:58.828Z,23.40
2019-03-11T08:19:52.771Z,22.90
2019-03-11T08:24:46.666Z,22.90
2019-03-11T08:29:40.617Z,23.70
2019-03-11T08:34:37.396Z,22.30
2019-03-11T08:39:33.222Z,22.60
2019-03-11T08:44:29.016Z,21.90
2019-03-11T08:49:24.861Z,20.90
2019-03-11T08:54:20.576Z,21.00
2019-03-11T08:59:16.712Z,21.40
2019-03-11T09:04:14.851Z,21.00
2019-03-11T09:09:13.078Z,20.40
2019-03-11T09:14:08.828Z,20.40
2019-03-11T09:19:04.664Z,20.80
2019-03-11T09:24:00.419Z,20.50
2019-03-11T09:28:59.307Z,19.50
2019-03-11T09:33:55.045Z,20.80
2019-03-11T09:38:52.783Z,20.00
2019-03-11T09:43:48.365Z,19.70
2019-03-11T09:48:47.748Z,18.40
2019-03-11T09:53:43.546Z,18.80
2019-03-11T09:58:40.772Z,18.80
2019-03-11T10:03:36.540Z,19.10
2019-03-11T10:08:32.273Z,19.30
2019-03-11T10:13:28.020Z,19.10
2019-03-11T10:18:23.752Z,18.10
2019-03-11T10:23:19.655Z,19.50
2019-03-11T10:28:16.870Z,19.50
2019-03-11T10:33:12.732Z,19.40
2019-03-11T10:38:08.552Z,19.00
2019-03-11T10:43:06.559Z,18.70
2019-03-11T10:48:02.717Z,19.10
2019-03-11T10:52:58.470Z,17.10
2019-03-11T10:57:55.137Z,17.40
2019-03-11T11:02:50.929Z,17.50
2019-03-11T11:07:47.959Z,17.00
2019-03-11T11:12:43.730Z,16.80
2019-03-11T11:17:39.799Z,17.90
2019-03-11T11:22:35.533Z,16.00
2019-03-11T11:27:31.274Z,16.20
2019-03-11T11:32:26.997Z,16.10
2019-03-11T11:37:22.988Z,15.90
2019-03-11T11:42:18.714Z,13.90
2019-03-11T11:47:14.694Z,15.30
2019-03-11T11:52:11.298Z,15.10
2019-03-11T11:57:07.451Z,13.90
2019-03-11T12:02:05.160Z,14.40
2019-03-11T12:07:01.403Z,14.10
2019-03-11T12:11:57.192Z,15.00
2019-03-11T12:16:54.729Z,16.00
2019-03-11T12:21:50.515Z,17.20
2019-03-11T12:26:49.382Z,25.50
2019-03-11T12:31:45.213Z,24.90
2019-03-11T12:36:42.154Z,26.80
2019-03-11T12:41:37.910Z,28.10
2019-03-11T12:46:33.845Z,27.10
2019-03-11T12:51:29.697Z,27.90
2019-03-11T12:56:27.083Z,29.90
2019-03-11T13:01:22.820Z,30.90
2019-03-11T13:06:23.479Z,29.60
2019-03-11T13:11:19.308Z,29.70
2019-03-11T13:16:15.235Z,30.10
2019-03-11T13:21:31.949Z,29.70
2019-03-11T13:26:30.086Z,29.30
2019-03-11T13:31:25.926Z,29.30
2019-03-11T13:36:21.728Z,31.50
2019-03-11T13:41:17.956Z,29.80
2019-03-11T13:46:14.353Z,29.80
2019-03-11T13:51:10.459Z,29.90
2019-03-11T13:56:06.442Z,28.80
2019-03-11T14:01:02.799Z,27.80
2019-03-11T14:05:58.795Z,28.60
2019-03-11T14:10:54.850Z,27.80
2019-03-11T14:15:50.719Z,27.20
2019-03-11T14:20:48.095Z,26.90
2019-03-11T14:25:44.088Z,27.40
2019-03-11T14:30:39.797Z,27.00
2019-03-11T14:35:37.167Z,27.10
2019-03-11T14:40:32.956Z,27.00
2019-03-11T14:45:28.904Z,27.10
2019-03-11T14:50:27.694Z,27.20
2019-03-11T14:55:23.755Z,27.70
2019-03-11T15:00:19.869Z,27.00
2019-03-11T15:05:17.904Z,26.80
2019-03-11T15:10:15.342Z,27.00
2019-03-11T15:15:13.207Z,27.10
2019-03-11T15:20:09.225Z,27.70
2019-03-11T15:25:05.655Z,27.70
2019-03-11T15:30:01.679Z,29.40
2019-03-11T15:34:57.441Z,30.30
2019-03-11T15:39:53.162Z,30.70
2019-03-11T15:44:48.926Z,30.00
2019-03-11T15:49:44.722Z,31.00
2019-03-11T15:54:40.625Z,31.70
2019-03-11T15:59:36.513Z,31.70
2019-03-11T16:04:32.505Z,32.40
2019-03-11T16:09:28.542Z,32.60
2019-03-11T16:14:24.374Z,33.00
2019-03-11T16:19:20.861Z,33.40
2019-03-11T16:24:16.624Z,33.10
2019-03-11T16:29:12.373Z,33.30
2019-03-11T16:34:08.208Z,33.20
2019-03-11T16:39:05.090Z,32.80
2019-03-11T16:44:02.402Z,32.70
2019-03-11T16:48:58.215Z,32.40
2019-03-11T16:53:54.688Z,32.60
2019-03-11T16:58:52.083Z,32.30
2019-03-11T17:03:47.836Z,31.20
2019-03-11T17:08:43.668Z,30.10
2019-03-11T17:13:39.365Z,29.20
2019-03-11T17:18:35.132Z,29.40
2019-03-11T17:23:31.257Z,29.30
2019-03-11T17:28:27.563Z,28.40
2019-03-11T17:33:24.149Z,28.90
2019-03-11T17:38:20.743Z,29.00
2019-03-11T17:43:17.113Z,28.70
2019-03-11T17:48:13.994Z,28.90
2019-03-11T17:53:19.477Z,28.70
2019-03-11T17:58:07.843Z,28.70
2019-03-11T18:03:03.851Z,28.70
2019-03-11T18:07:59.709Z,28.90
2019-03-11T18:12:55.495Z,28.90
2019-03-11T18:17:51.393Z,29.80
2019-03-11T18:22:47.300Z,29.50
2019-03-11T18:27:43.128Z,29.50
2019-03-11T18:32:38.811Z,29.70
2019-03-11T18:37:35.987Z,29.70
2019-03-11T18:42:32.284Z,30.10
2019-03-11T18:47:28.501Z,30.10
2019-03-11T18:52:24.973Z,31.20
2019-03-11T18:57:24.982Z,35.10
2019-03-11T19:02:23.355Z,39.40
2019-03-11T19:07:19.753Z,40.70
2019-03-11T19:12:15.521Z,39.90
2019-03-11T19:17:11.465Z,40.60
2019-03-11T19:22:07.687Z,41.20
2019-03-11T19:27:03.730Z,41.40
2019-03-11T19:31:59.979Z,41.60
2019-03-11T19:36:57.278Z,41.70
2019-03-11T19:41:54.572Z,41.70
2019-03-11T19:46:54.687Z,41.70
2019-03-11T19:51:51.457Z,41.90
2019-03-11T19:56:47.380Z,41.90
2019-03-11T20:01:43.340Z,42.30
2019-03-11T20:06:39.231Z,42.60
2019-03-11T20:11:35.558Z,43.00
2019-03-11T20:16:31.480Z,43.40
2019-03-11T20:21:27.506Z,43.50
2019-03-11T20:26:23.664Z,44.10
2019-03-11T20:31:19.899Z,44.80
2019-03-11T20:36:20.657Z,45.60
2019-03-11T20:41:14.931Z,45.90
2019-03-11T20:46:14.669Z,46.50
2019-03-11T20:51:10.606Z,46.80
2019-03-11T20:56:06.409Z,46.80
2019-03-11T21:01:03.651Z,49.00
2019-03-11T21:06:03.986Z,49.30
2019-03-11T21:11:01.081Z,49.30
2019-03-11T21:15:58.210Z,49.90
2019-03-11T21:21:04.123Z,50.00
2019-03-11T21:25:52.421Z,49.60
2019-03-11T21:30:50.282Z,50.90
2019-03-11T21:35:46.371Z,51.50
2019-03-11T21:40:42.312Z,52.40
2019-03-11T21:45:41.206Z,53.10
2019-03-11T21:50:38.565Z,53.90
2019-03-11T21:55:34.385Z,53.80
2019-03-11T22:00:34.454Z,54.20
2019-03-11T22:05:27.671Z,54.90
2019-03-11T22:10:23.538Z,55.20
2019-03-11T22:15:19.328Z,55.10
2019-03-11T22:20:15.963Z,55.30
2019-03-11T22:25:13.057Z,55.50
2019-03-11T22:30:12.373Z,55.80
2019-03-11T22:35:12.958Z,57.00
2019-03-11T22:40:09.376Z,58.00
2019-03-11T22:45:07.857Z,58.00
2019-03-11T22:50:03.612Z,59.00
2019-03-11T22:55:08.131Z,60.10
2019-03-11T23:00:06.861Z,60.50
2019-03-11T23:05:04.289Z,60.50
2019-03-11T23:10:00.405Z,61.50
2019-03-11T23:14:56.165Z,61.80
2019-03-11T23:19:51.880Z,62.10
2019-03-11T23:24:47.567Z,63.10
2019-03-11T23:29:46.264Z,63.80
2019-03-11T23:34:42.061Z,64.30
2019-03-11T23:39:38.016Z,65.60
2019-03-11T23:44:33.823Z,67.30
2019-03-11T23:49:29.642Z,68.30
2019-03-11T23:54:25.441Z,69.70
2019-03-11T23:59:21.308Z,71.30
